createdAt,value
2018-06-02T00:01:51.775Z,99.90
2018-06-02T00:04:21.031Z,99.90
2018-06-02T00:06:50.349Z,99.90
2018-06-02T00:09:19.541Z,99.90
2018-06-02T00:12:00.857Z,99.90
2018-06-02T00:14:30.067Z,99.90
2018-06-02T00:17:00.005Z,99.90
2018-06-02T00:19:29.262Z,99.90
2018-06-02T00:21:59.440Z,99.90
2018-06-02T00:24:28.651Z,99.90
2018-06-02T00:26:57.876Z,99.90
2018-06-02T00:29:27.037Z,99.90
2018-06-02T00:32:12.926Z,99.90
2018-06-02T00:34:42.224Z,99.90
2018-06-02T00:37:11.371Z,99.90
2018-06-02T00:39:40.721Z,99.90
2018-06-02T00:42:09.884Z,99.90
2018-06-02T00:44:39.939Z,99.90
2018-06-02T00:47:09.117Z,99.90
2018-06-02T00:49:38.326Z,99.90
2018-06-02T00:52:07.535Z,99.90
2018-06-02T00:54:48.661Z,99.90
2018-06-02T00:57:18.015Z,99.90
2018-06-02T00:59:47.228Z,99.90
2018-06-02T01:02:16.440Z,99.90
2018-06-02T01:04:46.017Z,99.90
2018-06-02T01:07:15.176Z,99.90
2018-06-02T01:09:44.406Z,99.90
2018-06-02T01:12:19.751Z,99.90
2018-06-02T01:14:49.051Z,99.90
2018-06-02T01:17:18.223Z,99.90
2018-06-02T01:19:47.446Z,99.90
2018-06-02T01:22:36.434Z,99.90
2018-06-02T01:25:05.571Z,99.90
2018-06-02T01:27:35.725Z,99.90
2018-06-02T01:30:04.917Z,99.90
2018-06-02T01:32:34.066Z,99.90
2018-06-02T01:35:04.269Z,99.90
2018-06-02T01:37:34.250Z,99.90
2018-06-02T01:40:03.409Z,99.90
2018-06-02T01:42:32.651Z,99.90
2018-06-02T01:45:01.810Z,99.90
2018-06-02T01:47:31.774Z,99.90
2018-06-02T01:50:00.964Z,99.90
2018-06-02T01:52:30.099Z,99.90
2018-06-02T01:54:59.264Z,99.90
2018-06-02T01:57:28.437Z,99.90
2018-06-02T01:59:57.567Z,99.90
2018-06-02T02:02:26.784Z,99.90
2018-06-02T02:04:55.914Z,99.90
2018-06-02T02:07:25.198Z,99.90
2018-06-02T02:09:54.367Z,99.90
2018-06-02T02:12:40.831Z,99.90
2018-06-02T02:15:10.003Z,99.90
2018-06-02T02:17:39.910Z,99.90
2018-06-02T02:20:09.877Z,99.90
2018-06-02T02:22:39.089Z,99.90
2018-06-02T02:25:08.280Z,99.90
2018-06-02T02:27:37.429Z,99.90
2018-06-02T02:30:07.421Z,99.90
2018-06-02T02:32:36.564Z,99.90
2018-06-02T02:35:25.161Z,99.90
2018-06-02T02:37:54.378Z,99.90
2018-06-02T02:40:23.748Z,99.90
2018-06-02T02:42:52.876Z,99.90
2018-06-02T02:45:22.065Z,99.90
2018-06-02T02:47:51.278Z,99.90
2018-06-02T02:50:20.491Z,99.90
2018-06-02T02:52:49.746Z,99.90
2018-06-02T02:55:18.882Z,99.90
2018-06-02T02:57:48.887Z,99.90
2018-06-02T03:00:28.931Z,99.90
2018-06-02T03:02:58.179Z,99.90
2018-06-02T03:05:27.380Z,99.90
2018-06-02T03:07:56.567Z,99.90
2018-06-02T03:10:25.721Z,99.90
2018-06-02T03:12:54.923Z,99.90
2018-06-02T03:15:24.171Z,99.90
2018-06-02T03:17:53.425Z,99.90
2018-06-02T03:20:22.652Z,99.90
2018-06-02T03:22:51.866Z,99.90
2018-06-02T03:25:38.203Z,99.90
2018-06-02T03:28:07.415Z,99.90
2018-06-02T03:30:36.569Z,99.90
2018-06-02T03:33:05.767Z,99.90
2018-06-02T03:35:45.964Z,99.90
2018-06-02T03:38:15.169Z,99.90
2018-06-02T03:40:44.424Z,99.90
2018-06-02T03:43:13.696Z,99.90
2018-06-02T03:49:09.886Z,99.90
2018-06-02T03:54:37.658Z,99.90
2018-06-02T03:57:06.892Z,99.90
2018-06-02T03:59:36.117Z,99.90
2018-06-02T04:02:05.301Z,99.90
2018-06-02T04:04:35.334Z,99.90
2018-06-02T04:07:04.638Z,99.90
2018-06-02T04:09:33.898Z,99.90
2018-06-02T04:12:03.167Z,99.90
2018-06-02T04:14:32.359Z,99.90
2018-06-02T04:17:01.539Z,99.90
2018-06-02T04:25:37.364Z,99.90
2018-06-02T04:28:06.645Z,99.90
2018-06-02T04:30:35.804Z,99.90
2018-06-02T04:33:09.111Z,99.90
2018-06-02T04:35:39.093Z,99.90
2018-06-02T04:41:09.458Z,99.90
2018-06-02T04:43:44.524Z,99.90
2018-06-02T04:46:20.243Z,99.90
2018-06-02T04:48:50.675Z,99.90
2018-06-02T04:51:27.829Z,99.90
2018-06-02T04:53:57.055Z,99.90
2018-06-02T04:56:27.036Z,99.90
2018-06-02T04:58:56.420Z,99.90
2018-06-02T05:01:30.271Z,99.90
2018-06-02T05:07:08.198Z,96.00
2018-06-02T05:09:37.388Z,96.00
2018-06-02T05:12:11.087Z,95.10
2018-06-02T05:14:40.195Z,94.50
2018-06-02T05:17:09.426Z,93.80
2018-06-02T05:19:38.571Z,92.90
2018-06-02T05:22:09.225Z,91.10
2018-06-02T05:25:01.320Z,87.50
2018-06-02T05:27:43.042Z,87.00
2018-06-02T05:30:12.232Z,86.80
2018-06-02T05:33:00.997Z,87.30
2018-06-02T05:35:31.185Z,86.80
2018-06-02T05:38:11.290Z,86.40
2018-06-02T05:40:49.989Z,86.30
2018-06-02T05:43:29.638Z,85.70
2018-06-02T05:46:07.021Z,85.20
2018-06-02T05:48:46.768Z,86.60
2018-06-02T05:51:26.432Z,86.70
2018-06-02T05:54:03.759Z,87.20
2018-06-02T05:56:42.089Z,86.80
2018-06-02T05:59:19.863Z,86.60
2018-06-02T06:01:58.410Z,86.60
2018-06-02T06:04:31.995Z,88.30
2018-06-02T06:07:01.169Z,88.30
2018-06-02T06:09:30.351Z,86.40
2018-06-02T06:11:59.624Z,86.10
2018-06-02T06:14:28.885Z,86.70
2018-06-02T06:16:58.094Z,85.40
2018-06-02T06:19:27.330Z,84.70
2018-06-02T06:21:57.324Z,79.00
2018-06-02T06:24:26.563Z,79.00
2018-06-02T06:26:56.576Z,80.10
2018-06-02T06:29:25.721Z,80.00
2018-06-02T06:31:56.175Z,82.20
2018-06-02T06:34:25.379Z,81.60
2018-06-02T06:36:54.596Z,81.00
2018-06-02T06:39:24.187Z,81.20
2018-06-02T06:41:54.157Z,77.20
2018-06-02T06:44:23.356Z,77.30
2018-06-02T06:46:52.580Z,78.70
2018-06-02T06:49:21.748Z,77.50
2018-06-02T06:51:50.938Z,76.50
2018-06-02T06:54:20.093Z,76.40
2018-06-02T06:56:50.101Z,74.10
2018-06-02T06:59:20.049Z,72.70
2018-06-02T07:01:49.997Z,75.10
2018-06-02T07:07:46.037Z,75.90
2018-06-02T07:10:19.563Z,75.90
2018-06-02T07:13:11.884Z,75.70
2018-06-02T07:18:47.155Z,71.50
2018-06-02T07:21:17.371Z,71.10
2018-06-02T07:23:58.279Z,70.10
2018-06-02T07:26:30.179Z,67.80
2018-06-02T07:28:59.395Z,67.80
2018-06-02T07:31:29.612Z,66.00
2018-06-02T07:33:58.827Z,65.70
2018-06-02T07:36:28.009Z,65.90
2018-06-02T07:38:57.248Z,65.80
2018-06-02T07:41:31.819Z,65.30
2018-06-02T07:44:00.980Z,63.70
2018-06-02T07:46:30.203Z,63.00
2018-06-02T07:48:59.379Z,61.80
2018-06-02T07:51:28.525Z,60.80
2018-06-02T07:53:57.845Z,60.90
2018-06-02T07:59:20.905Z,60.20
2018-06-02T08:02:11.748Z,59.40
2018-06-02T08:04:40.895Z,59.00
2018-06-02T08:07:10.043Z,58.10
2018-06-02T08:09:39.316Z,57.00
2018-06-02T08:12:08.476Z,58.10
2018-06-02T08:14:37.683Z,57.30
2018-06-02T08:17:06.904Z,58.40
2018-06-02T08:19:36.094Z,60.00
2018-06-02T08:22:29.621Z,60.70
2018-06-02T08:24:58.782Z,60.00
2018-06-02T08:27:27.965Z,58.90
2018-06-02T08:29:57.388Z,58.80
2018-06-02T08:32:26.735Z,58.40
2018-06-02T08:34:55.988Z,59.00
2018-06-02T08:37:25.174Z,57.60
2018-06-02T08:39:54.352Z,56.90
2018-06-02T08:42:27.291Z,57.30
2018-06-02T08:44:56.591Z,56.90
2018-06-02T08:47:26.488Z,56.00
2018-06-02T08:49:55.654Z,56.00
2018-06-02T08:52:24.840Z,57.00
2018-06-02T08:54:54.070Z,57.50
2018-06-02T08:57:23.238Z,58.40
2018-06-02T08:59:52.343Z,57.80
2018-06-02T09:02:35.581Z,57.30
2018-06-02T09:05:04.773Z,55.30
2018-06-02T09:07:34.072Z,53.90
2018-06-02T09:10:03.296Z,54.20
2018-06-02T09:12:32.459Z,54.50
2018-06-02T09:15:01.649Z,54.00
2018-06-02T09:17:30.856Z,53.70
2018-06-02T09:20:12.528Z,54.30
2018-06-02T09:22:41.744Z,55.40
2018-06-02T09:25:10.894Z,54.30
2018-06-02T09:27:40.020Z,53.70
2018-06-02T09:30:09.245Z,54.70
2018-06-02T09:32:38.365Z,54.70
2018-06-02T09:35:07.560Z,55.20
2018-06-02T09:37:56.337Z,54.90
2018-06-02T09:40:25.504Z,53.00
2018-06-02T09:42:54.681Z,53.30
2018-06-02T09:45:23.894Z,52.30
2018-06-02T09:47:53.195Z,52.60
2018-06-02T09:50:22.378Z,50.60
2018-06-02T09:52:51.571Z,51.90
2018-06-02T09:55:20.755Z,52.30
2018-06-02T09:57:50.007Z,50.70
2018-06-02T10:00:26.234Z,51.30
2018-06-02T10:02:55.449Z,52.00
2018-06-02T10:05:24.640Z,51.70
2018-06-02T10:07:54.025Z,52.00
2018-06-02T10:10:23.232Z,52.90
2018-06-02T10:12:52.548Z,52.20
2018-06-02T10:15:23.782Z,52.30
2018-06-02T10:17:52.982Z,52.70
2018-06-02T10:20:22.288Z,52.90
2018-06-02T10:29:04.826Z,51.80
2018-06-02T10:31:51.494Z,52.10
2018-06-02T10:34:21.472Z,51.60
2018-06-02T10:37:01.026Z,51.60
2018-06-02T10:39:30.168Z,50.00
2018-06-02T10:41:59.354Z,50.30
2018-06-02T10:44:28.565Z,49.30
2018-06-02T10:46:58.538Z,47.00
2018-06-02T10:58:37.312Z,47.00
2018-06-02T11:01:06.553Z,47.00
2018-06-02T11:03:35.821Z,45.60
2018-06-02T11:06:04.994Z,45.00
2018-06-02T11:08:51.886Z,45.30
2018-06-02T11:11:22.107Z,44.70
2018-06-02T11:13:51.293Z,44.70
2018-06-02T11:16:20.536Z,44.10
2018-06-02T11:18:49.803Z,43.00
2018-06-02T11:21:19.032Z,43.50
2018-06-02T11:24:07.138Z,42.80
2018-06-02T11:26:41.521Z,43.40
2018-06-02T11:29:10.798Z,43.00
2018-06-02T11:31:39.959Z,42.50
2018-06-02T11:34:09.166Z,41.60
2018-06-02T11:36:39.325Z,40.80
2018-06-02T11:39:08.478Z,41.70
2018-06-02T11:41:37.617Z,41.50
2018-06-02T11:44:06.789Z,41.90
2018-06-02T11:46:35.992Z,41.20
2018-06-02T11:49:05.887Z,40.80
2018-06-02T11:51:35.141Z,40.80
2018-06-02T11:54:05.065Z,41.40
2018-06-02T11:56:35.034Z,40.20
2018-06-02T11:59:10.170Z,40.10
2018-06-02T12:01:39.356Z,39.20
2018-06-02T12:04:08.570Z,40.00
2018-06-02T12:06:37.845Z,40.30
2018-06-02T12:09:07.061Z,40.80
2018-06-02T12:14:31.492Z,41.90
2018-06-02T12:17:00.748Z,43.70
2018-06-02T12:19:29.938Z,43.90
2018-06-02T12:21:59.136Z,45.90
2018-06-02T12:24:28.424Z,45.50
2018-06-02T12:26:57.661Z,45.70
2018-06-02T12:29:26.887Z,46.10
2018-06-02T12:31:56.851Z,45.70
2018-06-02T12:34:26.000Z,45.60
2018-06-02T12:40:09.632Z,42.30
2018-06-02T12:42:38.823Z,42.30
2018-06-02T12:45:07.955Z,41.50
2018-06-02T12:47:37.191Z,40.60
2018-06-02T12:50:07.121Z,42.20
2018-06-02T12:52:36.314Z,42.20
2018-06-02T12:55:05.542Z,42.10
2018-06-02T12:57:34.714Z,42.30
2018-06-02T13:00:03.899Z,42.40
2018-06-02T13:02:33.098Z,43.00
2018-06-02T13:05:02.277Z,42.90
2018-06-02T13:07:32.311Z,42.10
2018-06-02T13:10:01.521Z,42.10
2018-06-02T13:12:30.763Z,41.20
2018-06-02T13:15:00.671Z,42.10
2018-06-02T13:17:29.833Z,42.10
2018-06-02T13:19:59.084Z,45.00
2018-06-02T13:22:28.692Z,45.60
2018-06-02T13:25:16.479Z,44.60
2018-06-02T13:27:45.698Z,44.50
2018-06-02T13:30:14.912Z,44.90
2018-06-02T13:32:44.080Z,44.70
2018-06-02T13:35:13.260Z,45.10
2018-06-02T13:37:42.443Z,45.00
2018-06-02T13:40:11.602Z,43.80
2018-06-02T13:42:40.769Z,43.50
2018-06-02T13:45:09.952Z,44.20
2018-06-02T13:47:39.164Z,44.10
2018-06-02T13:50:08.351Z,41.90
2018-06-02T13:52:37.575Z,42.10
2018-06-02T13:55:06.821Z,42.10
2018-06-02T13:57:35.990Z,41.80
2018-06-02T14:00:05.183Z,43.20
2018-06-02T14:05:32.452Z,45.20
2018-06-02T14:08:01.663Z,45.40
2018-06-02T14:10:31.635Z,46.90
2018-06-02T14:13:00.808Z,46.90
2018-06-02T14:15:29.949Z,47.40
2018-06-02T14:17:59.118Z,48.20
2018-06-02T14:20:28.383Z,50.20
2018-06-02T14:22:57.556Z,49.50
2018-06-02T14:25:26.814Z,50.10
2018-06-02T14:27:55.927Z,50.30
2018-06-02T14:30:25.128Z,50.00
2018-06-02T14:32:54.350Z,50.70
2018-06-02T14:35:23.610Z,49.70
2018-06-02T14:37:52.908Z,49.70
2018-06-02T14:40:22.096Z,49.40
2018-06-02T14:42:51.335Z,50.30
2018-06-02T14:45:20.625Z,51.00
2018-06-02T14:47:50.608Z,51.10
2018-06-02T14:50:19.800Z,51.10
2018-06-02T14:52:49.023Z,51.20
2018-06-02T14:55:18.228Z,50.70
2018-06-02T14:57:47.458Z,49.80
2018-06-02T15:00:16.666Z,48.80
2018-06-02T15:02:46.657Z,48.80
2018-06-02T15:05:15.812Z,48.80
2018-06-02T15:07:44.965Z,48.80
2018-06-02T15:10:14.148Z,48.60
2018-06-02T15:12:43.341Z,48.70
2018-06-02T15:15:12.543Z,47.70
2018-06-02T15:18:00.643Z,47.90
2018-06-02T15:20:29.846Z,47.80
2018-06-02T15:22:59.051Z,46.80
2018-06-02T15:25:28.262Z,46.70
2018-06-02T15:27:57.441Z,46.30
2018-06-02T15:30:26.575Z,47.50
2018-06-02T15:32:56.558Z,48.00
2018-06-02T15:35:25.763Z,47.90
2018-06-02T15:38:07.699Z,48.30
2018-06-02T15:40:36.878Z,48.80
2018-06-02T15:43:06.038Z,49.10
2018-06-02T15:45:35.180Z,49.20
2018-06-02T15:48:05.189Z,48.30
2018-06-02T15:50:34.375Z,48.30
2018-06-02T15:53:03.724Z,48.50
2018-06-02T15:55:33.701Z,48.30
2018-06-02T15:58:09.264Z,48.40
2018-06-02T16:00:38.416Z,48.10
2018-06-02T16:03:14.075Z,46.70
2018-06-02T16:05:43.204Z,46.70
2018-06-02T16:11:21.909Z,47.10
2018-06-02T16:13:51.198Z,46.40
2018-06-02T16:16:20.425Z,46.70
2018-06-02T16:18:49.599Z,46.60
2018-06-02T16:21:18.788Z,46.60
2018-06-02T16:23:48.093Z,47.00
2018-06-02T16:26:17.766Z,45.70
2018-06-02T16:28:47.725Z,46.20
2018-06-02T16:31:16.918Z,46.20
2018-06-02T16:33:46.175Z,46.40
2018-06-02T16:36:16.958Z,46.00
2018-06-02T16:38:57.976Z,46.00
2018-06-02T16:41:27.125Z,45.90
2018-06-02T16:43:56.623Z,44.40
2018-06-02T16:49:42.508Z,40.20
2018-06-02T16:52:13.786Z,39.10
2018-06-02T16:54:42.896Z,38.90
2018-06-02T16:57:12.910Z,38.50
2018-06-02T17:00:02.811Z,35.50
2018-06-02T17:02:40.456Z,35.40
2018-06-02T17:05:24.902Z,32.20
2018-06-02T17:07:54.072Z,30.20
2018-06-02T17:13:20.226Z,28.60
2018-06-02T17:16:09.739Z,27.10
2018-06-02T17:21:56.227Z,27.30
2018-06-02T17:24:42.022Z,27.90
2018-06-02T17:27:11.154Z,27.50
2018-06-02T17:29:40.332Z,27.00
2018-06-02T17:32:14.112Z,27.30
2018-06-02T17:34:43.435Z,28.30
2018-06-02T17:37:13.547Z,28.00
2018-06-02T17:40:05.890Z,27.40
2018-06-02T17:42:42.461Z,27.00
2018-06-02T17:45:11.863Z,26.90
2018-06-02T17:50:43.900Z,25.90
2018-06-02T17:53:13.249Z,25.40
2018-06-02T17:55:44.502Z,25.40
2018-06-02T17:58:13.702Z,26.70
2018-06-02T18:00:42.888Z,27.50
2018-06-02T18:03:12.306Z,28.20
2018-06-02T18:05:41.498Z,28.90
2018-06-02T18:08:10.818Z,29.20
2018-06-02T18:10:40.149Z,30.20
2018-06-02T18:13:11.119Z,30.30
2018-06-02T18:15:40.224Z,30.30
2018-06-02T18:18:10.138Z,29.80
2018-06-02T18:20:39.309Z,29.80
2018-06-02T18:23:08.490Z,30.00
2018-06-02T18:25:37.785Z,30.10
2018-06-02T18:28:06.789Z,30.00
2018-06-02T18:30:36.792Z,30.30
2018-06-02T18:33:05.947Z,30.90
2018-06-02T18:35:37.190Z,31.80
2018-06-02T18:38:06.833Z,32.50
2018-06-02T18:40:36.164Z,33.90
2018-06-02T18:43:06.437Z,35.90
2018-06-02T18:45:35.573Z,38.10
2018-06-02T18:48:04.746Z,40.60
2018-06-02T18:50:35.590Z,42.60
2018-06-02T18:53:04.879Z,44.50
2018-06-02T18:55:35.943Z,47.70
2018-06-02T18:58:05.164Z,47.70
2018-06-02T19:00:34.309Z,49.30
2018-06-02T19:03:03.662Z,50.30
2018-06-02T19:05:32.864Z,51.50
2018-06-02T19:08:02.069Z,53.20
2018-06-02T19:10:31.478Z,53.60
2018-06-02T19:13:00.773Z,54.30
2018-06-02T19:16:12.997Z,55.30
2018-06-02T19:18:43.681Z,56.40
2018-06-02T19:21:15.179Z,56.90
2018-06-02T19:23:46.446Z,57.90
2018-06-02T19:26:18.011Z,59.00
2018-06-02T19:28:49.243Z,60.20
2018-06-02T19:31:20.539Z,61.30
2018-06-02T19:33:53.292Z,62.40
2018-06-02T19:36:24.633Z,63.30
2018-06-02T19:38:56.301Z,63.80
2018-06-02T19:41:27.564Z,64.80
2018-06-02T19:43:59.013Z,65.40
2018-06-02T19:46:30.394Z,66.60
2018-06-02T19:49:01.658Z,67.50
2018-06-02T19:51:33.989Z,68.90
2018-06-02T19:54:05.646Z,70.30
2018-06-02T19:56:37.247Z,71.60
2018-06-02T19:59:08.758Z,72.30
2018-06-02T20:01:40.466Z,72.50
2018-06-02T20:04:11.448Z,74.40
2018-06-02T20:06:42.758Z,75.50
2018-06-02T20:09:13.766Z,76.50
2018-06-02T20:11:45.024Z,77.00
2018-06-02T20:14:16.903Z,78.20
2018-06-02T20:16:48.160Z,79.10
2018-06-02T20:19:19.775Z,81.70
2018-06-02T20:21:52.384Z,83.60
2018-06-02T20:26:53.906Z,87.80
2018-06-02T20:29:25.539Z,88.90
2018-06-02T20:31:57.167Z,90.20
2018-06-02T20:34:28.662Z,90.50
2018-06-02T20:37:01.020Z,91.00
2018-06-02T20:39:32.248Z,91.60
2018-06-02T20:42:04.204Z,92.60
2018-06-02T20:44:35.657Z,93.10
2018-06-02T20:47:07.106Z,94.10
2018-06-02T20:49:38.878Z,95.10
2018-06-02T20:52:10.042Z,96.70
2018-06-02T20:54:41.358Z,97.20
2018-06-02T20:57:13.205Z,98.90
2018-06-02T20:59:45.274Z,99.90
2018-06-02T21:02:17.801Z,99.90
2018-06-02T21:04:49.270Z,99.90
2018-06-02T21:07:20.945Z,99.90
2018-06-02T21:09:52.471Z,99.90
2018-06-02T21:12:24.011Z,99.90
2018-06-02T21:14:55.526Z,99.90
2018-06-02T21:17:27.521Z,99.90
2018-06-02T21:19:59.056Z,99.90
2018-06-02T21:22:30.867Z,99.90
2018-06-02T21:25:02.484Z,99.90
2018-06-02T21:27:34.490Z,99.90
2018-06-02T21:30:05.937Z,99.90
2018-06-02T21:32:37.245Z,99.90
2018-06-02T21:35:08.753Z,99.90
2018-06-02T21:37:40.047Z,99.90
2018-06-02T21:40:12.028Z,99.90
2018-06-02T21:42:43.661Z,99.90
2018-06-02T21:45:14.837Z,99.90
2018-06-02T21:47:46.622Z,99.90
2018-06-02T21:50:18.789Z,99.90
2018-06-02T21:52:50.246Z,99.90
2018-06-02T21:55:21.648Z,99.90
2018-06-02T21:57:53.306Z,99.90
2018-06-02T22:00:25.928Z,99.90
2018-06-02T22:02:57.868Z,99.90
2018-06-02T22:05:29.467Z,99.90
2018-06-02T22:08:00.991Z,99.90
2018-06-02T22:10:31.995Z,99.90
2018-06-02T22:13:03.526Z,99.90
2018-06-02T22:15:34.988Z,99.90
2018-06-02T22:18:06.298Z,99.90
2018-06-02T22:20:38.735Z,99.90
2018-06-02T22:23:10.222Z,99.90
2018-06-02T22:25:41.397Z,99.90
2018-06-02T22:28:12.620Z,99.90
2018-06-02T22:30:43.885Z,99.90
2018-06-02T22:33:17.099Z,99.90
2018-06-02T22:35:48.717Z,99.90
2018-06-02T22:38:20.058Z,99.90
2018-06-02T22:40:51.946Z,99.90
2018-06-02T22:43:23.086Z,99.90
2018-06-02T22:45:54.939Z,99.90
2018-06-02T22:48:26.248Z,99.90
2018-06-02T22:50:58.076Z,99.90
2018-06-02T22:53:29.979Z,99.90
2018-06-02T22:56:01.910Z,99.90
2018-06-02T22:58:33.154Z,99.90
2018-06-02T23:01:04.502Z,99.90
2018-06-02T23:03:35.553Z,99.90
2018-06-02T23:06:07.294Z,99.90
2018-06-02T23:08:38.722Z,99.90
2018-06-02T23:11:08.912Z,99.90
2018-06-02T23:13:39.647Z,99.90
2018-06-02T23:16:10.787Z,99.90
2018-06-02T23:18:45.782Z,99.90
2018-06-02T23:21:17.113Z,99.90
2018-06-02T23:23:48.151Z,99.90
2018-06-02T23:26:19.171Z,99.90
2018-06-02T23:28:49.988Z,99.90
2018-06-02T23:31:20.911Z,99.90
2018-06-02T23:33:51.957Z,99.90
2018-06-02T23:36:22.962Z,99.90
2018-06-02T23:38:53.874Z,99.90
2018-06-02T23:41:24.879Z,99.90
2018-06-02T23:43:55.955Z,99.90
2018-06-02T23:46:27.065Z,99.90
2018-06-02T23:48:58.004Z,99.90
2018-06-02T23:51:29.304Z,99.90
2018-06-02T23:54:00.162Z,99.90
2018-06-02T23:56:31.069Z,99.90
2018-06-02T23:59:02.195Z,99.90
